Time;durP1;ratioP1;P1;durP2;ratioP2;P2;SDS_P1;SDS_P2;PMS_P1;PMS_P2;Temp;Humidity;BMP_temperature;BMP_pressure;BME280_temperature;BME280_humidity;BME280_pressure;Samples;Min_cycle;Max_cycle;Signal;HPM_P1;HPM_P2
2024/01/29 00:00:16;;;;;;;6.03;2.10;;;5.00;99.90;;;;;;5075970;28;20059;-49
2024/01/29 00:02:43;;;;;;;4.47;1.90;;;5.00;99.90;;;;;;5093794;28;20101;-47
2024/01/29 00:05:09;;;;;;;4.72;1.90;;;5.00;99.90;;;;;;5093526;28;20137;-48
2024/01/29 00:07:35;;;;;;;6.13;2.27;;;5.00;99.90;;;;;;5075772;28;20079;-48
2024/01/29 00:10:00;;;;;;;6.17;2.70;;;5.00;99.90;;;;;;5093671;28;20047;-47
2024/01/29 00:12:26;;;;;;;4.00;2.00;;;5.00;99.90;;;;;;5094026;28;20048;-47
2024/01/29 00:14:52;;;;;;;3.83;1.77;;;5.00;99.90;;;;;;5093694;28;20048;-47
2024/01/29 00:17:18;;;;;;;4.23;1.90;;;4.90;99.90;;;;;;5093481;28;20395;-47
2024/01/29 00:19:43;;;;;;;7.83;2.70;;;5.00;99.90;;;;;;5093342;28;20135;-47
2024/01/29 00:22:09;;;;;;;4.70;2.13;;;4.90;99.90;;;;;;5093572;28;20051;-47
2024/01/29 00:24:34;;;;;;;4.80;2.10;;;5.00;99.90;;;;;;5075563;28;20052;-47
2024/01/29 00:27:00;;;;;;;6.47;2.70;;;4.90;99.90;;;;;;5093345;28;20059;-47
2024/01/29 00:29:26;;;;;;;5.77;2.30;;;4.90;99.90;;;;;;5075699;28;20044;-47
2024/01/29 00:31:51;;;;;;;7.33;1.93;;;5.00;99.90;;;;;;5093344;28;20044;-47
2024/01/29 00:34:17;;;;;;;3.93;1.50;;;5.00;99.90;;;;;;5075469;28;20044;-47
2024/01/29 00:36:43;;;;;;;4.90;1.90;;;5.00;99.90;;;;;;5093103;28;20056;-49
2024/01/29 00:39:09;;;;;;;5.40;1.90;;;5.00;99.90;;;;;;5093771;28;20083;-47
2024/01/29 00:41:38;;;;;;;4.93;2.08;;;5.00;99.90;;;;;;5093703;28;20056;-48
2024/01/29 00:44:03;;;;;;;6.00;2.05;;;5.00;99.90;;;;;;5093263;28;20044;-48
2024/01/29 00:46:29;;;;;;;5.77;2.23;;;5.00;99.90;;;;;;5093462;28;20083;-47
2024/01/29 00:48:55;;;;;;;4.80;1.93;;;5.00;99.90;;;;;;5093107;28;20063;-47
2024/01/29 00:51:20;;;;;;;4.57;2.23;;;5.00;99.90;;;;;;5093295;28;20390;-47
2024/01/29 00:53:47;;;;;;;5.60;2.77;;;5.00;99.90;;;;;;5093183;28;20051;-47
2024/01/29 00:56:13;;;;;;;7.03;1.80;;;5.00;99.90;;;;;;5093538;28;20136;-47
2024/01/29 00:58:43;;;;;;;6.53;2.60;;;5.00;99.90;;;;;;5093159;28;20485;-47
2024/01/29 01:01:09;;;;;;;5.88;2.10;;;5.00;99.90;;;;;;5093287;28;20055;-47
2024/01/29 01:03:35;;;;;;;4.85;2.20;;;4.90;99.90;;;;;;5075092;28;20067;-47
2024/01/29 01:06:00;;;;;;;7.53;2.00;;;4.90;99.90;;;;;;5096232;28;20040;-47
2024/01/29 01:08:26;;;;;;;4.87;2.33;;;4.90;99.90;;;;;;5096884;28;20036;-47
2024/01/29 01:10:52;;;;;;;5.07;2.13;;;4.80;99.90;;;;;;5096665;28;20047;-47
2024/01/29 01:13:17;;;;;;;4.77;2.20;;;4.80;99.90;;;;;;5096759;28;20048;-47
2024/01/29 01:15:43;;;;;;;5.03;1.80;;;4.70;99.90;;;;;;5096618;28;20117;-47
2024/01/29 01:18:09;;;;;;;4.73;2.17;;;4.70;99.90;;;;;;5096473;28;20052;-47
2024/01/29 01:20:34;;;;;;;7.43;2.40;;;4.70;99.90;;;;;;5096738;28;20048;-49
2024/01/29 01:23:01;;;;;;;5.03;2.30;;;4.70;99.90;;;;;;5078458;28;20050;-47
2024/01/29 01:25:27;;;;;;;4.25;2.10;;;4.70;99.90;;;;;;5096567;28;20389;-49
2024/01/29 01:27:53;;;;;;;5.23;2.40;;;4.70;99.90;;;;;;5096565;28;20115;-47
2024/01/29 01:30:20;;;;;;;4.20;1.67;;;4.70;99.90;;;;;;5096407;28;20055;-47
2024/01/29 01:32:46;;;;;;;6.53;2.42;;;4.70;99.90;;;;;;5096175;28;20052;-48
2024/01/29 01:35:12;;;;;;;7.10;2.10;;;4.70;99.90;;;;;;5078489;28;20066;-47
2024/01/29 01:37:38;;;;;;;4.13;2.03;;;4.70;99.90;;;;;;5078276;28;20475;-48
2024/01/29 01:40:04;;;;;;;5.00;2.10;;;4.70;99.90;;;;;;5078235;28;20036;-48
2024/01/29 01:42:30;;;;;;;6.93;1.88;;;4.70;99.90;;;;;;5096057;28;20576;-47
2024/01/29 01:44:56;;;;;;;4.63;2.03;;;4.70;99.90;;;;;;5096154;28;20077;-47
2024/01/29 01:47:22;;;;;;;5.97;2.27;;;4.70;99.90;;;;;;5078025;28;20047;-48
2024/01/29 01:49:48;;;;;;;5.23;2.40;;;4.70;99.90;;;;;;5096236;28;20148;-49
2024/01/29 01:52:16;;;;;;;5.45;2.08;;;4.70;99.90;;;;;;5096228;28;20062;-48
2024/01/29 01:54:43;;;;;;;4.25;1.85;;;4.70;99.90;;;;;;5096245;28;20502;-52
2024/01/29 01:57:09;;;;;;;5.43;2.30;;;4.60;99.90;;;;;;5095732;28;20056;-52
2024/01/29 01:59:37;;;;;;;5.80;2.58;;;4.60;99.90;;;;;;5095801;28;20059;-50
2024/01/29 02:02:03;;;;;;;4.85;1.90;;;4.60;99.90;;;;;;5095582;28;20515;-50
2024/01/29 02:04:29;;;;;;;5.53;2.20;;;4.60;99.90;;;;;;5095718;28;20087;-48
2024/01/29 02:06:55;;;;;;;6.10;2.43;;;4.60;99.90;;;;;;5096216;28;20524;-49
2024/01/29 02:09:21;;;;;;;6.30;2.50;;;4.60;99.90;;;;;;5095602;28;20050;-51
2024/01/29 02:11:47;;;;;;;4.90;2.42;;;4.50;99.90;;;;;;5077595;28;20127;-50
2024/01/29 02:14:13;;;;;;;4.83;2.37;;;4.50;99.90;;;;;;5095648;28;20461;-52
2024/01/29 02:16:38;;;;;;;6.67;2.30;;;4.50;99.90;;;;;;5095372;28;20097;-50
2024/01/29 02:19:13;;;;;;;6.63;1.90;;;4.40;99.90;;;;;;5095437;28;20127;-49
2024/01/29 02:21:39;;;;;;;4.30;2.10;;;4.40;99.90;;;;;;5061304;28;20139;-49
2024/01/29 02:24:05;;;;;;;6.00;2.27;;;4.40;99.90;;;;;;5095546;28;20127;-49
2024/01/29 02:26:30;;;;;;;4.78;1.85;;;4.40;99.90;;;;;;5095321;28;20048;-47
2024/01/29 02:28:57;;;;;;;5.13;1.90;;;4.40;99.90;;;;;;5095148;28;20083;-47
2024/01/29 02:31:23;;;;;;;4.22;2.00;;;4.30;99.90;;;;;;5095347;28;20374;-47
2024/01/29 02:33:49;;;;;;;5.15;2.10;;;4.30;99.90;;;;;;5077423;28;20100;-47
2024/01/29 02:36:16;;;;;;;5.68;1.90;;;4.30;99.90;;;;;;5095065;28;20512;-47
2024/01/29 02:38:42;;;;;;;6.60;2.40;;;4.30;99.90;;;;;;5095151;28;20047;-48
2024/01/29 02:41:08;;;;;;;6.13;2.47;;;4.30;99.90;;;;;;5094923;28;20052;-47
2024/01/29 02:43:34;;;;;;;5.85;2.63;;;4.40;99.90;;;;;;5094904;28;20044;-47
2024/01/29 02:46:00;;;;;;;5.20;2.10;;;4.40;99.90;;;;;;5095316;28;20475;-48
2024/01/29 02:48:26;;;;;;;5.90;2.37;;;4.40;99.90;;;;;;5095358;28;20036;-48
2024/01/29 02:50:51;;;;;;;5.43;2.33;;;4.40;99.90;;;;;;5094040;28;20042;-47
2024/01/29 02:53:17;;;;;;;4.13;1.90;;;4.50;99.90;;;;;;5094924;28;20509;-47
2024/01/29 02:55:43;;;;;;;5.33;2.60;;;4.50;99.90;;;;;;5094804;28;20460;-47
2024/01/29 02:58:08;;;;;;;4.53;2.33;;;4.50;99.90;;;;;;5094737;28;20451;-47
2024/01/29 03:00:34;;;;;;;4.60;1.77;;;4.50;99.90;;;;;;5094394;28;20105;-47
2024/01/29 03:03:00;;;;;;;6.73;2.60;;;4.60;99.90;;;;;;5076780;28;20054;-47
2024/01/29 03:05:26;;;;;;;5.80;2.13;;;4.60;99.90;;;;;;5094587;28;20052;-47
2024/01/29 03:07:51;;;;;;;5.47;2.17;;;4.60;99.90;;;;;;5094448;28;20037;-47
2024/01/29 03:10:17;;;;;;;5.73;2.57;;;4.60;99.90;;;;;;5094626;28;20048;-48
2024/01/29 03:12:43;;;;;;;4.60;2.00;;;4.60;99.90;;;;;;5094362;28;20085;-47
2024/01/29 03:15:09;;;;;;;4.77;2.17;;;4.60;99.90;;;;;;5094113;28;20056;-48
2024/01/29 03:17:34;;;;;;;6.00;2.70;;;4.60;99.90;;;;;;5076292;28;20483;-47
2024/01/29 03:20:00;;;;;;;4.67;2.10;;;4.50;99.90;;;;;;5094373;28;20040;-47
2024/01/29 03:22:26;;;;;;;5.40;2.27;;;4.50;99.90;;;;;;5094246;28;20395;-48
2024/01/29 03:24:51;;;;;;;5.80;2.57;;;4.40;99.90;;;;;;5094269;28;20135;-48
2024/01/29 03:27:17;;;;;;;4.97;2.30;;;4.40;99.90;;;;;;5093638;28;20040;-47
2024/01/29 03:29:43;;;;;;;5.43;2.10;;;4.30;99.90;;;;;;5093907;28;20040;-48
2024/01/29 03:32:09;;;;;;;6.37;2.50;;;4.30;99.90;;;;;;5076126;28;20428;-49
2024/01/29 03:34:35;;;;;;;6.53;2.70;;;4.20;99.90;;;;;;5094031;28;20055;-49
2024/01/29 03:37:01;;;;;;;5.93;2.37;;;4.20;99.90;;;;;;5094210;28;20048;-47
2024/01/29 03:39:26;;;;;;;6.10;2.53;;;4.20;99.90;;;;;;5076170;28;20494;-47
2024/01/29 03:41:52;;;;;;;6.37;2.53;;;4.10;99.90;;;;;;5094055;28;20504;-47
2024/01/29 03:44:18;;;;;;;5.23;2.17;;;4.10;99.90;;;;;;5093765;28;20044;-48
2024/01/29 03:46:43;;;;;;;7.27;2.13;;;4.20;99.90;;;;;;5094585;28;20044;-48
2024/01/29 03:49:09;;;;;;;5.60;2.17;;;4.20;99.90;;;;;;5075850;28;20123;-47
2024/01/29 03:51:34;;;;;;;5.00;2.53;;;4.20;99.90;;;;;;5075887;28;20509;-47
2024/01/29 03:54:00;;;;;;;4.30;2.20;;;4.20;99.90;;;;;;5093895;28;20044;-47
2024/01/29 03:56:26;;;;;;;5.50;2.40;;;4.20;99.90;;;;;;5093752;28;20044;-48
2024/01/29 03:58:52;;;;;;;6.03;2.40;;;4.20;99.90;;;;;;5093923;28;20052;-47
2024/01/29 04:01:27;;;;;;;5.50;2.40;;;4.30;99.90;;;;;;5093867;28;20060;-47
2024/01/29 04:03:53;;;;;;;5.38;2.30;;;4.20;99.90;;;;;;5093617;28;20040;-47
2024/01/29 04:06:19;;;;;;;5.53;2.42;;;4.30;99.90;;;;;;5093819;28;20055;-47
2024/01/29 04:08:45;;;;;;;6.00;2.40;;;4.20;99.90;;;;;;5059195;28;20048;-48
2024/01/29 04:11:10;;;;;;;4.37;2.03;;;4.20;99.90;;;;;;5093646;28;20044;-47
2024/01/29 04:13:36;;;;;;;5.80;2.40;;;4.20;99.90;;;;;;5075688;28;20079;-48
2024/01/29 04:16:02;;;;;;;5.63;2.70;;;4.10;99.90;;;;;;5093689;28;20048;-47
2024/01/29 04:18:27;;;;;;;5.47;2.50;;;4.20;99.90;;;;;;5093901;28;20494;-47
2024/01/29 04:20:53;;;;;;;5.90;2.77;;;4.20;99.90;;;;;;5093622;28;20048;-47
2024/01/29 04:23:19;;;;;;;5.80;2.50;;;4.20;99.90;;;;;;5093399;28;20566;-48
2024/01/29 04:25:44;;;;;;;4.80;2.10;;;4.20;99.90;;;;;;5093421;28;20458;-48
2024/01/29 04:28:10;;;;;;;5.87;2.50;;;4.20;99.90;;;;;;5093387;28;20083;-48
2024/01/29 04:30:36;;;;;;;5.73;2.33;;;4.20;99.90;;;;;;5093533;28;20105;-51
2024/01/29 04:33:02;;;;;;;4.57;2.27;;;4.20;99.90;;;;;;5093667;28;20040;-50
2024/01/29 04:35:27;;;;;;;8.03;3.03;;;4.20;99.90;;;;;;5075716;28;20047;-52
2024/01/29 04:37:53;;;;;;;7.83;3.30;;;4.20;99.90;;;;;;5075658;28;20149;-52
2024/01/29 04:40:19;;;;;;;6.73;2.87;;;4.20;99.90;;;;;;5095397;28;20051;-51
2024/01/29 04:42:44;;;;;;;5.57;2.57;;;4.20;99.90;;;;;;5079036;28;20044;-50
2024/01/29 04:45:10;;;;;;;6.33;2.67;;;4.20;99.90;;;;;;5097356;28;20052;-51
2024/01/29 04:47:36;;;;;;;5.43;2.83;;;4.20;99.90;;;;;;5079265;28;20040;-47
2024/01/29 04:50:01;;;;;;;6.70;2.70;;;4.20;99.90;;;;;;5079467;28;20052;-50
2024/01/29 04:52:27;;;;;;;6.00;2.43;;;4.20;99.90;;;;;;5097168;28;20040;-48
2024/01/29 04:54:53;;;;;;;5.83;2.87;;;4.20;99.90;;;;;;5097030;28;20398;-48
2024/01/29 04:57:20;;;;;;;6.17;2.43;;;4.20;99.90;;;;;;5078722;28;20052;-48
2024/01/29 04:59:46;;;;;;;5.75;2.72;;;4.30;99.90;;;;;;5097044;28;20131;-51
2024/01/29 05:02:11;;;;;;;6.37;2.77;;;4.20;99.90;;;;;;5097014;28;20126;-48
2024/01/29 05:04:37;;;;;;;6.00;2.77;;;4.20;99.90;;;;;;5097022;28;20069;-48
2024/01/29 05:07:03;;;;;;;5.53;2.90;;;4.20;99.90;;;;;;5096924;28;20044;-48
2024/01/29 05:09:28;;;;;;;5.53;2.53;;;4.20;99.90;;;;;;5078932;28;20120;-47
2024/01/29 05:11:54;;;;;;;6.07;3.00;;;4.20;99.90;;;;;;5078584;28;20090;-47
2024/01/29 05:14:19;;;;;;;5.90;2.60;;;4.20;99.90;;;;;;5079030;28;20048;-48
2024/01/29 05:16:45;;;;;;;5.93;2.53;;;4.00;99.90;;;;;;5096793;28;20474;-47
2024/01/29 05:19:11;;;;;;;6.00;3.13;;;4.00;99.90;;;;;;5096651;28;20487;-47
2024/01/29 05:21:36;;;;;;;6.03;2.87;;;4.00;99.90;;;;;;5096981;28;20075;-47
2024/01/29 05:24:02;;;;;;;5.67;2.70;;;3.90;99.90;;;;;;5096481;28;20126;-47
2024/01/29 05:26:28;;;;;;;5.60;2.50;;;3.90;99.90;;;;;;5078331;28;20044;-47
2024/01/29 05:28:54;;;;;;;6.53;3.20;;;3.90;99.90;;;;;;5096307;28;20043;-48
2024/01/29 05:31:19;;;;;;;5.90;3.00;;;3.90;99.90;;;;;;5096524;28;20173;-48
2024/01/29 05:33:45;;;;;;;5.37;2.70;;;3.90;99.90;;;;;;5096202;28;20047;-51
2024/01/29 05:36:11;;;;;;;6.97;3.17;;;3.90;99.90;;;;;;5078204;28;20051;-50
2024/01/29 05:38:36;;;;;;;7.40;2.83;;;3.90;99.90;;;;;;5096075;28;20044;-48
2024/01/29 05:41:02;;;;;;;5.97;3.00;;;3.90;99.90;;;;;;5096245;28;20044;-47
2024/01/29 05:43:28;;;;;;;6.90;2.80;;;4.00;99.90;;;;;;5078212;28;20441;-47
2024/01/29 05:45:53;;;;;;;7.30;3.27;;;4.00;99.90;;;;;;5062101;28;20052;-47
2024/01/29 05:48:19;;;;;;;7.53;3.17;;;4.00;99.90;;;;;;5096155;28;20071;-48
2024/01/29 05:50:45;;;;;;;5.80;2.70;;;4.10;99.90;;;;;;5061119;28;20048;-48
2024/01/29 05:53:10;;;;;;;7.37;2.83;;;4.10;99.90;;;;;;5095914;28;20048;-49
2024/01/29 05:55:36;;;;;;;5.93;2.93;;;4.10;99.90;;;;;;5078022;28;20512;-51
2024/01/29 05:58:02;;;;;;;6.10;3.10;;;4.20;99.90;;;;;;5095865;28;20559;-49
2024/01/29 06:00:28;;;;;;;6.53;2.67;;;4.20;99.90;;;;;;5095899;28;20044;-48
2024/01/29 06:02:53;;;;;;;6.73;3.50;;;4.20;99.90;;;;;;5096067;28;20465;-47
2024/01/29 06:05:19;;;;;;;6.13;3.13;;;4.10;99.90;;;;;;5095876;28;20086;-47
2024/01/29 06:07:45;;;;;;;6.67;2.97;;;4.10;99.90;;;;;;5095761;28;20486;-47
2024/01/29 06:10:13;;;;;;;6.60;2.87;;;4.10;99.90;;;;;;5095636;28;20055;-47
2024/01/29 06:12:39;;;;;;;7.45;3.17;;;4.10;99.90;;;;;;5095387;28;20487;-47
2024/01/29 06:15:05;;;;;;;6.70;2.90;;;4.10;99.90;;;;;;5095686;28;20051;-47
2024/01/29 06:17:31;;;;;;;5.60;2.85;;;4.00;99.90;;;;;;5095511;28;20044;-47
2024/01/29 06:19:56;;;;;;;5.77;3.10;;;4.00;99.90;;;;;;5095427;28;20104;-48
2024/01/29 06:22:22;;;;;;;8.33;3.30;;;4.00;99.90;;;;;;5077683;28;20040;-47
2024/01/29 06:24:48;;;;;;;6.10;2.87;;;4.00;99.90;;;;;;5095245;28;20456;-48
2024/01/29 06:27:13;;;;;;;8.30;3.27;;;4.00;99.90;;;;;;5096072;28;20055;-47
2024/01/29 06:29:39;;;;;;;7.27;3.17;;;4.00;99.90;;;;;;5077608;28;20544;-47
2024/01/29 06:32:05;;;;;;;7.43;3.40;;;4.00;99.90;;;;;;5077508;28;20062;-48
2024/01/29 06:34:33;;;;;;;6.17;2.63;;;4.00;99.90;;;;;;5095166;28;20080;-48
2024/01/29 06:36:59;;;;;;;6.68;2.95;;;4.00;99.90;;;;;;5094976;28;20075;-48
2024/01/29 06:39:25;;;;;;;7.57;3.20;;;4.00;99.90;;;;;;5076895;28;20487;-47
2024/01/29 06:41:50;;;;;;;8.40;3.67;;;4.00;99.90;;;;;;5095409;28;20054;-48
2024/01/29 06:44:16;;;;;;;5.80;2.70;;;4.10;99.90;;;;;;5095057;28;20040;-47
2024/01/29 06:46:42;;;;;;;7.17;3.23;;;4.10;99.90;;;;;;5095076;28;20051;-47
2024/01/29 06:49:08;;;;;;;8.17;3.70;;;4.20;99.90;;;;;;5077381;28;20044;-47
2024/01/29 06:51:33;;;;;;;10.67;3.13;;;4.10;99.90;;;;;;5076821;28;20503;-47
2024/01/29 06:54:03;;;;;;;6.27;2.90;;;4.20;99.90;;;;;;5094781;28;20047;-50
2024/01/29 06:56:29;;;;;;;7.60;3.22;;;4.20;99.90;;;;;;5094805;28;20086;-48
2024/01/29 06:58:54;;;;;;;7.07;3.23;;;4.20;99.90;;;;;;5094599;28;20498;-47
2024/01/29 07:01:20;;;;;;;5.77;3.00;;;4.20;99.90;;;;;;5094691;28;20051;-48
2024/01/29 07:03:46;;;;;;;6.50;3.53;;;4.20;99.90;;;;;;5093852;28;20071;-47
2024/01/29 07:06:11;;;;;;;7.10;3.53;;;4.20;99.90;;;;;;5094527;28;20426;-47
2024/01/29 07:08:37;;;;;;;7.03;3.33;;;4.20;99.90;;;;;;5076490;28;20059;-47
2024/01/29 07:11:03;;;;;;;8.27;3.57;;;4.20;99.90;;;;;;5076574;28;20451;-48
2024/01/29 07:13:29;;;;;;;7.30;3.00;;;4.30;99.90;;;;;;5094503;28;20052;-48
2024/01/29 07:15:54;;;;;;;6.83;3.17;;;4.30;99.90;;;;;;5094505;28;20123;-47
2024/01/29 07:18:22;;;;;;;7.43;3.40;;;4.30;99.90;;;;;;5076360;28;20394;-49
2024/01/29 07:20:49;;;;;;;6.13;3.20;;;4.30;99.90;;;;;;5094261;28;20048;-49
2024/01/29 07:23:15;;;;;;;7.03;2.90;;;4.30;99.90;;;;;;5093923;28;20056;-51
2024/01/29 07:25:41;;;;;;;8.77;3.37;;;4.30;99.90;;;;;;5094397;28;20109;-50
2024/01/29 07:28:06;;;;;;;6.10;3.23;;;4.30;99.90;;;;;;5094286;28;20475;-49
2024/01/29 07:30:33;;;;;;;6.70;3.63;;;4.30;99.90;;;;;;5094094;28;20375;-48
2024/01/29 07:32:59;;;;;;;7.95;3.33;;;4.30;99.90;;;;;;5075997;28;20048;-51
2024/01/29 07:35:25;;;;;;;7.88;3.92;;;4.30;99.90;;;;;;5094014;28;20044;-50
2024/01/29 07:37:52;;;;;;;8.75;3.88;;;4.20;99.90;;;;;;5093563;28;20036;-48
2024/01/29 07:40:19;;;;;;;;;;;4.30;99.90;;;;;;5094440;28;20053;-49
2024/01/29 07:42:45;;;;;;;6.63;3.65;;;4.20;99.90;;;;;;5094476;28;19920;-51
2024/01/29 07:45:11;;;;;;;7.75;3.20;;;4.20;99.90;;;;;;5093999;28;20055;-50
2024/01/29 07:47:37;;;;;;;8.73;3.95;;;4.20;99.90;;;;;;5094040;28;20043;-51
2024/01/29 07:50:03;;;;;;;8.77;3.93;;;4.20;99.90;;;;;;5094027;28;20039;-49
2024/01/29 07:52:29;;;;;;;8.00;3.88;;;4.20;99.90;;;;;;5075829;28;20078;-49
2024/01/29 07:54:55;;;;;;;9.53;4.10;;;4.20;99.90;;;;;;5093912;28;20052;-49
2024/01/29 07:57:20;;;;;;;7.40;3.87;;;4.20;99.90;;;;;;5093787;28;20047;-47
2024/01/29 07:59:46;;;;;;;8.70;4.27;;;4.20;99.90;;;;;;5093908;28;20055;-47
2024/01/29 08:02:12;;;;;;;8.00;3.87;;;4.30;99.90;;;;;;5094144;28;20386;-51
2024/01/29 08:04:38;;;;;;;7.63;3.63;;;4.30;99.90;;;;;;5093842;28;20040;-49
2024/01/29 08:07:04;;;;;;;8.80;3.30;;;4.30;99.90;;;;;;5093471;28;20051;-48
2024/01/29 08:09:30;;;;;;;7.13;3.80;;;4.40;99.90;;;;;;5093790;28;20119;-48
2024/01/29 08:11:56;;;;;;;6.87;3.43;;;4.40;99.90;;;;;;5093767;28;20461;-48
2024/01/29 08:14:22;;;;;;;7.35;3.60;;;4.40;99.90;;;;;;5077800;28;20398;-49
2024/01/29 08:16:48;;;;;;;9.20;3.93;;;4.40;99.90;;;;;;5097799;28;20048;-48
2024/01/29 08:19:13;;;;;;;7.50;3.60;;;4.40;99.90;;;;;;5097739;28;20116;-48
2024/01/29 08:21:39;;;;;;;8.93;3.87;;;4.40;99.90;;;;;;5097672;28;20043;-48
2024/01/29 08:24:05;;;;;;;6.97;3.67;;;4.40;99.90;;;;;;5097930;28;20082;-48
2024/01/29 08:26:31;;;;;;;8.80;4.05;;;4.50;99.90;;;;;;5097742;28;20040;-50
2024/01/29 08:28:58;;;;;;;7.43;3.88;;;4.50;99.90;;;;;;5097585;28;20047;-50
2024/01/29 08:31:24;;;;;;;7.28;3.83;;;4.60;99.90;;;;;;5097724;28;20058;-48
2024/01/29 08:33:50;;;;;;;6.57;3.50;;;4.60;99.90;;;;;;5097434;28;20040;-50
2024/01/29 08:36:16;;;;;;;8.77;4.00;;;4.70;99.90;;;;;;5097403;28;20048;-48
2024/01/29 08:38:42;;;;;;;9.53;4.30;;;4.70;99.90;;;;;;5097849;28;20043;-47
2024/01/29 08:41:08;;;;;;;9.07;3.83;;;4.80;99.90;;;;;;5097421;28;20629;-48
2024/01/29 08:43:34;;;;;;;7.63;3.83;;;4.80;99.90;;;;;;5097330;28;20047;-47
2024/01/29 08:46:00;;;;;;;7.47;4.20;;;4.80;99.90;;;;;;5097280;28;20437;-48
2024/01/29 08:48:26;;;;;;;8.83;4.23;;;4.90;99.90;;;;;;5097146;28;20123;-47
2024/01/29 08:50:51;;;;;;;6.50;3.47;;;4.90;99.90;;;;;;5097242;28;20081;-48
2024/01/29 08:53:17;;;;;;;8.00;4.07;;;5.00;99.90;;;;;;5097862;28;20051;-48
2024/01/29 08:55:43;;;;;;;8.73;4.03;;;5.00;99.90;;;;;;5097190;28;20073;-47
2024/01/29 08:58:09;;;;;;;8.60;4.47;;;5.10;99.90;;;;;;5078697;28;20540;-47
2024/01/29 09:00:34;;;;;;;8.33;4.63;;;5.10;99.90;;;;;;5097087;28;20051;-47
2024/01/29 09:03:00;;;;;;;7.70;3.83;;;5.20;99.90;;;;;;5096857;28;20044;-48
2024/01/29 09:05:26;;;;;;;7.27;3.80;;;5.20;99.90;;;;;;5096797;28;20063;-48
2024/01/29 09:07:52;;;;;;;8.07;4.03;;;5.20;99.90;;;;;;5097216;28;20063;-48
2024/01/29 09:10:18;;;;;;;9.73;4.72;;;5.30;99.90;;;;;;5096886;28;20075;-48
2024/01/29 09:12:44;;;;;;;9.27;5.23;;;5.30;99.90;;;;;;5096837;28;20129;-49
2024/01/29 09:15:10;;;;;;;8.20;4.10;;;5.40;99.90;;;;;;5096791;28;20437;-48
2024/01/29 09:17:36;;;;;;;7.60;4.47;;;5.40;99.90;;;;;;5096627;28;20089;-47
2024/01/29 09:20:06;;;;;;;8.05;4.15;;;5.50;99.90;;;;;;5096498;28;20123;-48
2024/01/29 09:22:32;;;;;;;10.23;4.78;;;5.50;99.90;;;;;;5096616;28;20040;-47
2024/01/29 09:24:57;;;;;;;8.90;4.13;;;5.50;99.90;;;;;;5096229;28;20105;-47
2024/01/29 09:27:23;;;;;;;10.87;4.67;;;5.50;99.90;;;;;;5096180;28;20083;-48
2024/01/29 09:29:49;;;;;;;8.30;4.10;;;5.60;99.90;;;;;;5096401;28;20048;-48
2024/01/29 09:32:15;;;;;;;10.73;4.10;;;5.60;99.90;;;;;;5096372;28;20047;-47
2024/01/29 09:34:40;;;;;;;9.10;4.67;;;5.60;99.90;;;;;;5096243;28;20040;-47
2024/01/29 09:37:06;;;;;;;7.17;4.10;;;5.70;99.90;;;;;;5078643;28;20086;-48
2024/01/29 09:39:32;;;;;;;9.83;4.53;;;5.70;99.90;;;;;;5078585;28;20055;-48
2024/01/29 09:42:03;;;;;;;9.77;4.67;;;5.70;99.90;;;;;;5078421;28;20072;-48
2024/01/29 09:44:35;;;;;;;9.00;4.47;;;5.70;99.90;;;;;;5096296;28;20052;-47
2024/01/29 09:47:04;;;;;;;10.15;5.00;;;5.80;99.90;;;;;;5096196;28;20048;-48
2024/01/29 09:49:30;;;;;;;9.27;4.22;;;5.80;99.90;;;;;;5096065;28;20044;-47
2024/01/29 09:51:56;;;;;;;9.37;5.27;;;5.90;99.90;;;;;;5096075;28;20054;-48
2024/01/29 09:54:22;;;;;;;9.65;4.97;;;5.90;99.90;;;;;;5096037;28;20048;-48
2024/01/29 09:56:47;;;;;;;9.33;4.20;;;6.00;99.90;;;;;;5095871;28;20048;-48
2024/01/29 09:59:13;;;;;;;14.67;5.27;;;6.00;99.90;;;;;;5095730;28;20058;-48
2024/01/29 10:01:40;;;;;;;10.60;5.57;;;6.10;99.90;;;;;;5095842;28;20495;-48
2024/01/29 10:04:06;;;;;;;;;;;6.10;99.90;;;;;;5078306;28;20040;-48
2024/01/29 10:06:31;;;;;;;11.45;5.20;;;6.10;99.90;;;;;;5095796;28;20328;-47
2024/01/29 10:08:57;;;;;;;8.37;5.00;;;6.20;99.90;;;;;;5095734;28;20080;-48
2024/01/29 10:11:24;;;;;;;10.77;5.40;;;6.20;99.90;;;;;;5095713;28;20390;-48
2024/01/29 10:14:00;;;;;;;9.65;4.93;;;6.30;99.90;;;;;;5095506;28;20051;-48
2024/01/29 10:16:27;;;;;;;8.73;4.35;;;6.30;99.90;;;;;;5077560;28;20048;-50
2024/01/29 10:18:59;;;;;;;;;;;6.30;99.90;;;;;;5095933;28;20067;-49
2024/01/29 10:21:25;;;;;;;12.05;5.15;;;6.40;99.90;;;;;;5095498;28;20400;-49
2024/01/29 10:23:57;;;;;;;10.57;5.50;;;6.40;99.90;;;;;;5095473;28;20036;-48
2024/01/29 10:26:23;;;;;;;10.98;5.70;;;6.50;99.90;;;;;;5095276;28;20046;-51
2024/01/29 10:29:01;;;;;;;11.23;5.10;;;6.50;99.90;;;;;;5095271;28;20127;-50
2024/01/29 10:31:26;;;;;;;9.82;5.55;;;6.50;99.90;;;;;;5095347;28;20086;-51
2024/01/29 10:33:53;;;;;;;9.90;5.97;;;6.60;99.90;;;;;;5095228;28;20429;-50
2024/01/29 10:36:19;;;;;;;11.60;6.13;;;6.60;99.90;;;;;;5095186;28;20087;-51
2024/01/29 10:38:47;;;;;;;10.65;6.15;;;6.70;99.90;;;;;;5094222;28;20051;-49
2024/01/29 10:41:17;;;;;;;12.15;5.63;;;6.70;99.90;;;;;;5095185;28;20448;-48
2024/01/29 10:43:46;;;;;;;11.82;6.05;;;6.70;99.90;;;;;;5095192;28;20047;-50
2024/01/29 10:46:14;;;;;;;13.80;5.57;;;6.80;99.90;;;;;;5094999;28;20048;-49
2024/01/29 10:48:41;;;;;;;13.02;6.07;;;6.80;99.90;;;;;;5095010;28;20051;-51
2024/01/29 10:51:07;;;;;;;10.82;6.10;;;6.80;99.90;;;;;;5094756;28;20048;-49
2024/01/29 10:53:34;;;;;;;13.93;6.30;;;6.90;99.90;;;;;;5076818;28;20055;-49
2024/01/29 10:56:00;;;;;;;12.98;6.22;;;6.90;99.90;;;;;;5094869;28;20048;-50
2024/01/29 10:58:28;;;;;;;12.23;6.20;;;7.00;99.90;;;;;;5094418;28;20044;-50
2024/01/29 11:00:54;;;;;;;12.75;5.32;;;7.00;99.90;;;;;;5094827;28;20127;-48
2024/01/29 11:03:21;;;;;;;11.65;5.28;;;7.00;99.90;;;;;;5076986;28;20048;-48
2024/01/29 11:05:56;;;;;;;11.93;6.30;;;7.10;99.90;;;;;;5076811;28;20052;-48
2024/01/29 11:08:27;;;;;;;12.02;6.20;;;7.10;99.90;;;;;;5094597;28;20050;-48
2024/01/29 11:10:54;;;;;;;11.43;5.97;;;7.10;99.90;;;;;;5094790;28;20491;-48
2024/01/29 11:13:21;;;;;;;11.52;6.25;;;7.10;99.90;;;;;;5095094;28;20437;-48
2024/01/29 11:15:47;;;;;;;11.77;5.97;;;7.10;99.90;;;;;;5059961;28;20048;-47
2024/01/29 11:18:13;;;;;;;14.77;6.63;;;7.10;99.90;;;;;;5094421;28;20098;-48
2024/01/29 11:20:39;;;;;;;14.20;6.47;;;7.10;99.90;;;;;;5094286;28;20286;-48
2024/01/29 11:23:05;;;;;;;13.77;6.85;;;7.10;99.90;;;;;;5094248;28;20052;-48
2024/01/29 11:25:32;;;;;;;12.98;6.90;;;7.20;99.90;;;;;;5094167;28;20055;-49
2024/01/29 11:28:01;;;;;;;12.10;6.72;;;7.20;99.90;;;;;;5094099;28;20475;-47
2024/01/29 11:30:27;;;;;;;12.45;6.97;;;7.20;99.90;;;;;;5094275;28;20044;-48
2024/01/29 11:33:15;;;;;;;15.20;6.90;;;7.20;99.90;;;;;;5094262;28;20101;-48
2024/01/29 11:35:42;;;;;;;17.50;7.40;;;7.20;99.90;;;;;;5093549;28;20071;-48
2024/01/29 11:38:09;;;;;;;14.75;7.22;;;7.20;99.90;;;;;;5093790;28;20471;-48
2024/01/29 11:40:36;;;;;;;15.32;7.38;;;7.30;99.90;;;;;;5076290;28;20047;-48
2024/01/29 11:43:19;;;;;;;14.38;6.43;;;7.30;99.90;;;;;;5094060;28;20113;-48
2024/01/29 11:45:50;;;;;;;15.88;6.53;;;7.30;99.90;;;;;;5059670;28;20060;-49
2024/01/29 11:48:20;;;;;;;15.70;7.03;;;7.30;99.90;;;;;;5093380;28;20397;-48
2024/01/29 11:50:48;;;;;;;16.17;7.47;;;7.30;99.90;;;;;;5094014;28;20040;-47
2024/01/29 11:53:25;;;;;;;17.58;7.28;;;7.30;99.90;;;;;;5094010;28;20044;-49
2024/01/29 11:55:52;;;;;;;13.73;7.10;;;7.40;99.90;;;;;;5093954;28;20050;-47
2024/01/29 11:58:20;;;;;;;15.73;6.97;;;7.40;99.90;;;;;;5093662;28;20475;-49
2024/01/29 12:00:49;;;;;;;14.57;6.85;;;7.40;99.90;;;;;;5092854;28;21376;-48
2024/01/29 12:03:34;;;;;;;12.75;6.63;;;7.50;99.90;;;;;;5093793;28;20051;-48
2024/01/29 12:06:00;;;;;;;15.85;7.05;;;7.50;99.90;;;;;;5094030;28;20113;-48
2024/01/29 12:08:30;;;;;;;16.20;7.53;;;7.50;99.90;;;;;;5093698;28;20097;-48
2024/01/29 12:11:01;;;;;;;18.80;8.30;;;7.60;99.90;;;;;;5093717;28;20764;-48
2024/01/29 12:13:27;;;;;;;15.57;7.43;;;7.60;99.90;;;;;;5093457;28;20048;-48
2024/01/29 12:15:54;;;;;;;16.08;7.88;;;7.60;99.90;;;;;;5075692;28;20451;-48
2024/01/29 12:18:23;;;;;;;15.55;8.18;;;7.70;99.90;;;;;;5093485;28;20044;-48
2024/01/29 12:20:49;;;;;;;17.67;7.90;;;7.70;99.90;;;;;;5093551;28;20083;-49
2024/01/29 12:23:20;;;;;;;15.30;7.93;;;7.70;99.90;;;;;;5093656;28;20094;-48
2024/01/29 12:25:51;;;;;;;13.68;7.38;;;7.80;99.90;;;;;;5093436;28;20282;-49
2024/01/29 12:28:16;;;;;;;16.98;7.03;;;7.80;99.90;;;;;;5093506;28;20486;-48
2024/01/29 12:30:43;;;;;;;15.17;7.53;;;7.80;99.90;;;;;;5093289;28;20108;-49
2024/01/29 12:33:17;;;;;;;17.50;7.93;;;7.80;99.90;;;;;;5093314;28;20518;-49
2024/01/29 12:35:43;;;;;;;15.15;7.25;;;7.80;99.90;;;;;;5093357;28;20083;-49
2024/01/29 12:38:12;;;;;;;14.70;7.87;;;7.80;99.90;;;;;;5093203;28;20094;-52
2024/01/29 12:40:41;;;;;;;16.20;7.80;;;7.80;99.90;;;;;;5093267;28;20048;-48
2024/01/29 12:43:09;;;;;;;14.70;7.85;;;7.80;99.90;;;;;;5093477;28;20047;-49
2024/01/29 12:45:36;;;;;;;16.95;8.30;;;7.80;99.90;;;;;;5093465;28;20055;-50
2024/01/29 12:48:17;;;;;;;23.48;9.93;;;7.80;99.90;;;;;;5093299;28;20372;-48
2024/01/29 12:50:42;;;;;;;16.70;7.70;;;7.80;99.90;;;;;;5093152;28;20491;-48